Time;durP1;ratioP1;P1;durP2;ratioP2;P2;SDS_P1;SDS_P2;PMS_P1;PMS_P2;Temp;Humidity;BMP_temperature;BMP_pressure;BME280_temperature;BME280_humidity;BME280_pressure;Samples;Min_cycle;Max_cycle;Signal;HPM_P1;HPM_P2
2023/05/11 00:02:10;;;;;;;;;;;14.80;96.70;;;;;;5027448;28;19982;-70
2023/05/11 00:04:36;;;;;;;;;;;14.80;96.90;;;;;;5045329;28;19913;-70
2023/05/11 00:07:01;;;;;;;;;;;14.80;96.90;;;;;;5045442;28;20011;-70
2023/05/11 00:09:27;;;;;;;;;;;14.80;96.90;;;;;;5045356;28;20352;-70
2023/05/11 00:11:53;;;;;;;;;;;14.80;96.90;;;;;;5045073;28;19919;-69
2023/05/11 00:14:18;;;;;;;;;;;14.80;96.90;;;;;;5045452;28;20341;-70
2023/05/11 00:16:44;;;;;;;;;;;14.80;96.90;;;;;;5114103;28;20480;-70
2023/05/11 00:19:09;;;;;;;;;;;14.80;97.00;;;;;;5036823;28;20596;-70
2023/05/11 00:21:35;;;;;;;;;;;14.70;97.00;;;;;;5044894;28;19960;-70
2023/05/11 00:24:00;;;;;;;;;;;14.70;97.00;;;;;;5045871;28;19913;-70
2023/05/11 00:26:26;;;;;;;;;;;14.70;97.00;;;;;;5031069;28;19913;-69
2023/05/11 00:28:51;;;;;;;;;;;14.70;97.00;;;;;;5048697;28;19909;-70
2023/05/11 00:31:17;;;;;;;;;;;14.70;97.00;;;;;;5049015;28;19953;-70
2023/05/11 00:33:42;;;;;;;;;;;14.70;97.10;;;;;;5048347;28;19990;-69
2023/05/11 00:36:08;;;;;;;;;;;14.70;97.10;;;;;;5048765;28;20385;-70
2023/05/11 00:38:35;;;;;;;;;;;14.70;97.00;;;;;;5048265;28;19913;-70
2023/05/11 00:41:01;;;;;;;;;;;14.70;97.10;;;;;;5048352;28;19965;-70
2023/05/11 00:43:27;;;;;;;;;;;14.60;97.10;;;;;;5048471;28;19916;-70
2023/05/11 00:45:52;;;;;;;;;;;14.60;97.10;;;;;;5048682;28;19912;-70
2023/05/11 00:48:18;;;;;;;;;;;14.60;97.10;;;;;;5048386;28;19960;-70
2023/05/11 00:50:43;;;;;;;;;;;14.60;97.20;;;;;;5030674;28;20694;-69
2023/05/11 00:53:10;;;;;;;;;;;14.60;97.10;;;;;;5047860;28;19923;-70
2023/05/11 00:55:36;;;;;;;;;;;14.60;97.20;;;;;;5048292;28;19912;-70
2023/05/11 00:58:04;;;;;;;;;;;14.60;97.20;;;;;;5047942;28;19984;-70
2023/05/11 01:00:29;;;;;;;;;;;14.60;97.10;;;;;;5048626;27;19913;-70
2023/05/11 01:02:55;;;;;;;;;;;14.60;97.10;;;;;;5048103;28;19920;-70
2023/05/11 01:05:21;;;;;;;;;;;14.60;97.10;;;;;;5048535;28;19912;-70
2023/05/11 01:07:46;;;;;;;;;;;14.60;97.20;;;;;;5048083;28;19919;-70
2023/05/11 01:10:14;;;;;;;;;;;14.50;97.20;;;;;;5048180;28;20350;-69
2023/05/11 01:12:44;;;;;;;;;;;14.60;97.20;;;;;;5047950;28;20567;-70
2023/05/11 01:15:38;;;;;;;;;;;14.60;97.20;;;;;;5117192;27;19913;-70
2023/05/11 01:18:04;;;;;;;;;;;14.60;97.20;;;;;;5085090;27;20288;-70
2023/05/11 01:20:30;;;;;;;;;;;14.50;97.10;;;;;;5047542;27;20027;-69
2023/05/11 01:22:55;;;;;;;;;;;14.50;97.20;;;;;;5047805;28;19917;-70
2023/05/11 01:25:27;;;;;;;;;;;14.50;97.20;;;;;;5048159;27;19934;-70
2023/05/11 01:27:56;;;;;;;;;;;14.50;97.20;;;;;;5048176;28;19919;-70
2023/05/11 01:30:27;;;;;;;;;;;14.50;97.20;;;;;;5048248;28;20349;-69
2023/05/11 01:33:04;;;;;;;;;;;14.50;97.20;;;;;;5047689;28;19996;-70
2023/05/11 01:35:31;;;;;;;;;;;14.50;97.20;;;;;;5047713;28;19955;-69
2023/05/11 01:37:58;;;;;;;;;;;14.50;97.30;;;;;;5047458;28;19935;-69
2023/05/11 01:40:26;;;;;;;;;;;14.50;97.30;;;;;;5047639;28;20350;-70
2023/05/11 01:42:59;;;;;;;;;;;14.50;97.40;;;;;;5047267;28;20253;-70
2023/05/11 01:45:25;;;;;;;;;;;14.50;97.20;;;;;;5047831;28;19917;-70
2023/05/11 01:47:51;;;;;;;;;;;14.50;97.30;;;;;;5029501;28;20564;-70
2023/05/11 01:50:18;;;;;;;;;;;14.40;97.30;;;;;;5047571;28;19919;-69
2023/05/11 01:52:45;;;;;;;;;;;14.40;97.30;;;;;;5047258;28;20399;-70
2023/05/11 01:55:11;;;;;;;;;;;14.40;97.30;;;;;;5029430;28;20463;-69
2023/05/11 01:57:37;;;;;;;;;;;14.40;97.30;;;;;;5047343;28;19916;-69
2023/05/11 02:00:03;;;;;;;;;;;14.40;97.40;;;;;;5047304;28;19915;-70
2023/05/11 02:02:30;;;;;;;;;;;14.40;97.30;;;;;;5047059;28;20003;-69
2023/05/11 02:04:57;;;;;;;;;;;14.40;97.30;;;;;;5047283;28;20540;-69
2023/05/11 02:07:23;;;;;;;;;;;14.40;97.40;;;;;;5047178;28;19913;-69
2023/05/11 02:09:49;;;;;;;;;;;14.30;97.30;;;;;;5047082;28;19920;-69
2023/05/11 02:12:16;;;;;;;;;;;14.30;97.40;;;;;;5046881;28;19964;-69
2023/05/11 02:14:42;;;;;;;;;;;14.30;97.40;;;;;;5047257;28;19909;-70
2023/05/11 02:17:07;;;;;;;;;;;14.30;97.40;;;;;;5046841;28;19965;-69
2023/05/11 02:19:34;;;;;;;;;;;14.30;97.40;;;;;;5038572;28;19916;-70
2023/05/11 02:22:00;;;;;;;;;;;14.30;97.40;;;;;;5028629;28;19921;-69
2023/05/11 02:24:27;;;;;;;;;;;14.30;97.40;;;;;;5046915;28;20565;-69
2023/05/11 02:26:52;;;;;;;;;;;14.30;97.40;;;;;;5046987;28;20312;-69
2023/05/11 02:29:18;;;;;;;;;;;14.30;97.40;;;;;;5046888;28;19996;-69
2023/05/11 02:31:46;;;;;;;;;;;14.30;97.40;;;;;;5046828;28;19928;-70
2023/05/11 02:34:19;;;;;;;;;;;14.20;97.50;;;;;;5046740;28;19909;-70
2023/05/11 02:36:47;;;;;;;;;;;14.20;97.40;;;;;;5046775;28;20292;-69
2023/05/11 02:39:14;;;;;;;;;;;14.20;97.40;;;;;;5046620;28;20303;-70
2023/05/11 02:41:42;;;;;;;;;;;14.20;97.50;;;;;;5046505;28;19920;-69
2023/05/11 02:44:09;;;;;;;;;;;14.20;97.50;;;;;;5046475;28;20328;-69
2023/05/11 02:46:35;;;;;;;;;;;14.20;97.50;;;;;;5045747;28;19920;-70
2023/05/11 02:49:02;;;;;;;;;;;14.20;97.50;;;;;;5030793;28;20277;-70
2023/05/11 02:51:31;;;;;;;;;;;14.20;97.50;;;;;;5046618;28;20467;-70
2023/05/11 02:53:58;;;;;;;;;;;14.20;97.40;;;;;;5046430;28;19913;-69
2023/05/11 02:56:23;;;;;;;;;;;14.20;97.50;;;;;;5046827;28;19913;-70
2023/05/11 02:58:49;;;;;;;;;;;14.20;97.50;;;;;;5046758;28;19920;-70
2023/05/11 03:01:16;;;;;;;;;;;14.20;97.50;;;;;;5046521;28;19913;-70
2023/05/11 03:03:41;;;;;;;;;;;14.20;97.60;;;;;;5045572;28;19917;-70
2023/05/11 03:06:06;;;;;;;;;;;14.20;97.40;;;;;;5046329;28;19916;-70
2023/05/11 03:08:33;;;;;;;;;;;14.10;97.50;;;;;;5046228;28;20457;-70
2023/05/11 03:10:59;;;;;;;;;;;14.10;97.50;;;;;;5046627;28;19920;-70
2023/05/11 03:13:24;;;;;;;;;;;14.10;97.50;;;;;;5046235;28;19919;-69
2023/05/11 03:15:51;;;;;;;;;;;14.10;97.30;;;;;;5046097;28;19917;-69
2023/05/11 03:18:17;;;;;;;;;;;14.10;97.40;;;;;;5037484;28;19916;-69
2023/05/11 03:20:44;;;;;;;;;;;14.10;97.50;;;;;;5042963;28;20258;-70
2023/05/11 03:23:10;;;;;;;;;;;14.10;97.60;;;;;;5034945;28;20025;-70
2023/05/11 03:25:37;;;;;;;;;;;14.10;97.50;;;;;;5034833;28;19921;-70
2023/05/11 03:28:03;;;;;;;;;;;14.10;97.50;;;;;;5028125;28;20273;-70
2023/05/11 03:30:28;;;;;;;;;;;14.10;97.50;;;;;;5043994;28;20379;-69
2023/05/11 03:32:54;;;;;;;;;;;14.10;97.60;;;;;;5037766;28;19913;-70
2023/05/11 03:35:22;;;;;;;;;;;14.10;97.60;;;;;;5044790;28;19913;-69
2023/05/11 03:37:48;;;;;;;;;;;14.10;97.90;;;;;;5045580;28;20007;-69
2023/05/11 03:40:15;;;;;;;;;;;14.10;97.60;;;;;;5027795;28;19912;-69
2023/05/11 03:42:41;;;;;;;;;;;14.00;97.50;;;;;;5015973;28;19912;-69
2023/05/11 03:45:08;;;;;;;;;;;14.10;97.70;;;;;;5045517;28;20552;-70
2023/05/11 03:47:34;;;;;;;;;;;14.00;97.40;;;;;;5045604;28;19920;-69
2023/05/11 03:50:01;;;;;;;;;;;14.00;97.50;;;;;;5044999;28;19920;-69
2023/05/11 03:52:27;;;;;;;;;;;14.00;97.50;;;;;;5045167;28;20429;-69
2023/05/11 03:54:52;;;;;;;;;;;14.00;97.50;;;;;;5027028;28;19909;-69
2023/05/11 03:57:18;;;;;;;;;;;14.00;97.50;;;;;;5045465;28;19913;-69
2023/05/11 03:59:43;;;;;;;;;;;14.00;97.60;;;;;;5027377;28;20626;-69
2023/05/11 04:02:09;;;;;;;;;;;14.00;97.60;;;;;;5045092;28;19961;-69
2023/05/11 04:04:34;;;;;;;;;;;14.00;97.60;;;;;;5045099;28;19920;-69
2023/05/11 04:07:00;;;;;;;;;;;14.00;97.60;;;;;;5045244;28;19920;-70
2023/05/11 04:09:25;;;;;;;;;;;14.00;97.30;;;;;;5044958;28;20342;-70
2023/05/11 04:11:51;;;;;;;;;;;14.00;97.60;;;;;;5044961;28;19996;-70
2023/05/11 04:14:17;;;;;;;;;;;14.00;97.50;;;;;;5045307;28;19986;-70
2023/05/11 04:16:43;;;;;;;;;;;14.00;97.60;;;;;;5045229;28;20544;-69
2023/05/11 04:19:09;;;;;;;;;;;14.00;97.40;;;;;;5076480;27;19913;-69
2023/05/11 04:21:34;;;;;;;;;;;14.00;97.60;;;;;;5044483;28;19928;-69
2023/05/11 04:24:00;;;;;;;;;;;14.00;97.50;;;;;;5026662;28;19920;-69
2023/05/11 04:26:26;;;;;;;;;;;14.00;97.50;;;;;;5044963;28;19917;-70
2023/05/11 04:28:51;;;;;;;;;;;14.00;97.50;;;;;;5026847;28;20023;-69
2023/05/11 04:31:17;;;;;;;;;;;14.00;97.60;;;;;;5045217;28;20361;-69
2023/05/11 04:33:42;;;;;;;;;;;13.90;97.50;;;;;;5044527;28;19913;-70
2023/05/11 04:36:08;;;;;;;;;;;14.00;97.60;;;;;;5044967;28;20384;-70
2023/05/11 04:38:34;;;;;;;;;;;14.00;97.60;;;;;;5044549;28;20004;-69
2023/05/11 04:41:03;;;;;;;;;;;14.00;97.60;;;;;;5044597;28;19995;-69
2023/05/11 04:43:29;;;;;;;;;;;13.90;97.60;;;;;;5044471;28;19957;-69
2023/05/11 04:45:54;;;;;;;;;;;13.90;97.70;;;;;;5044840;28;20526;-70
2023/05/11 04:48:19;;;;;;;;;;;13.90;97.60;;;;;;5044675;28;19913;-69
2023/05/11 04:50:45;;;;;;;;;;;13.90;97.60;;;;;;5044500;28;19948;-70
2023/05/11 04:53:10;;;;;;;;;;;13.90;97.60;;;;;;5044048;28;19925;-69
2023/05/11 04:55:36;;;;;;;;;;;13.90;97.70;;;;;;5044494;28;20490;-69
2023/05/11 04:58:01;;;;;;;;;;;13.90;97.70;;;;;;5026655;28;19974;-69
2023/05/11 05:00:27;;;;;;;;;;;13.90;97.70;;;;;;5026855;28;19916;-69
2023/05/11 05:02:52;;;;;;;;;;;13.90;97.70;;;;;;5044270;28;19916;-69
2023/05/11 05:05:18;;;;;;;;;;;13.90;97.60;;;;;;5044059;28;19909;-70
2023/05/11 05:07:44;;;;;;;;;;;13.90;97.70;;;;;;5044539;28;20385;-70
2023/05/11 05:10:11;;;;;;;;;;;14.00;97.80;;;;;;5044993;28;19966;-69
2023/05/11 05:12:37;;;;;;;;;;;14.00;97.70;;;;;;5047611;28;19909;-69
2023/05/11 05:15:03;;;;;;;;;;;14.00;97.60;;;;;;5047890;28;19912;-69
2023/05/11 05:17:28;;;;;;;;;;;14.00;97.70;;;;;;5046116;28;19988;-69
2023/05/11 05:19:54;;;;;;;;;;;14.00;97.80;;;;;;5055766;28;20329;-70
2023/05/11 05:22:20;;;;;;;;;;;14.00;97.70;;;;;;5029285;28;20000;-69
2023/05/11 05:24:45;;;;;;;;;;;14.00;97.70;;;;;;5047396;28;19952;-69
2023/05/11 05:27:12;;;;;;;;;;;14.00;97.90;;;;;;5029300;28;20283;-69
2023/05/11 05:29:38;;;;;;;;;;;14.00;97.90;;;;;;5047877;28;19921;-70
2023/05/11 05:32:03;;;;;;;;;;;14.00;97.80;;;;;;5047891;27;19949;-69
2023/05/11 05:34:29;;;;;;;;;;;14.00;97.90;;;;;;5047790;28;19948;-69
2023/05/11 05:36:54;;;;;;;;;;;14.00;97.90;;;;;;5047620;28;20381;-69
2023/05/11 05:39:20;;;;;;;;;;;14.00;97.90;;;;;;5046444;28;19977;-70
2023/05/11 05:41:45;;;;;;;;;;;14.00;97.90;;;;;;5047428;28;20011;-69
2023/05/11 05:44:11;;;;;;;;;;;14.00;98.00;;;;;;5047138;28;19921;-69
2023/05/11 05:46:36;;;;;;;;;;;14.10;97.70;;;;;;5047670;28;20357;-69
2023/05/11 05:49:02;;;;;;;;;;;14.10;97.80;;;;;;5047350;28;20302;-69
2023/05/11 05:51:27;;;;;;;;;;;14.10;97.90;;;;;;5047542;28;19913;-69
2023/05/11 05:53:53;;;;;;;;;;;14.10;97.80;;;;;;5046896;28;19917;-70
2023/05/11 05:56:18;;;;;;;;;;;14.10;97.90;;;;;;5047386;28;19924;-69
2023/05/11 05:58:44;;;;;;;;;;;14.10;97.80;;;;;;5047312;28;19988;-70
2023/05/11 06:01:10;;;;;;;;;;;14.10;97.80;;;;;;5029438;28;19965;-69
2023/05/11 06:03:35;;;;;;;;;;;14.10;97.70;;;;;;5046997;28;19925;-70
2023/05/11 06:06:03;;;;;;;;;;;14.20;97.80;;;;;;5047319;28;19917;-69
2023/05/11 06:08:29;;;;;;;;;;;14.20;97.70;;;;;;5106631;27;19915;-70
2023/05/11 06:10:55;;;;;;;;;;;14.20;97.60;;;;;;5045121;28;19917;-70
2023/05/11 06:13:20;;;;;;;;;;;14.20;97.50;;;;;;5045711;28;19919;-69
2023/05/11 06:15:46;;;;;;;;;;;14.20;97.70;;;;;;5047037;28;20385;-70
2023/05/11 06:18:11;;;;;;;;;;;14.30;97.70;;;;;;5046682;28;20039;-70
2023/05/11 06:20:36;;;;;;;;;;;14.30;97.60;;;;;;5046031;28;19916;-70
2023/05/11 06:23:02;;;;;;;;;;;14.30;97.50;;;;;;5045929;28;19962;-69
2023/05/11 06:25:27;;;;;;;;;;;14.30;97.60;;;;;;5046577;28;19916;-69
2023/05/11 06:27:53;;;;;;;;;;;14.30;97.50;;;;;;5046919;28;19913;-69
2023/05/11 06:30:18;;;;;;;;;;;14.30;97.50;;;;;;5046603;28;19916;-69
2023/05/11 06:32:44;;;;;;;;;;;14.40;97.60;;;;;;5046257;28;19925;-69
2023/05/11 06:35:10;;;;;;;;;;;14.40;97.50;;;;;;5046626;28;19932;-70
2023/05/11 06:37:35;;;;;;;;;;;14.40;97.40;;;;;;5046672;28;20465;-70
2023/05/11 06:40:01;;;;;;;;;;;14.40;97.50;;;;;;5046237;28;19967;-69
2023/05/11 06:42:26;;;;;;;;;;;14.40;97.30;;;;;;5045535;28;19912;-69
2023/05/11 06:44:52;;;;;;;;;;;14.50;97.40;;;;;;5046491;28;20365;-69
2023/05/11 06:47:17;;;;;;;;;;;14.50;97.40;;;;;;5028612;28;20400;-69
2023/05/11 06:49:43;;;;;;;;;;;14.50;97.30;;;;;;5046400;28;19915;-70
2023/05/11 06:52:09;;;;;;;;;;;14.50;97.20;;;;;;5046078;28;20562;-70
2023/05/11 06:54:34;;;;;;;;;;;14.60;97.10;;;;;;5046291;28;19963;-70
2023/05/11 06:57:02;;;;;;;;;;;14.60;97.10;;;;;;5028714;28;19963;-70
2023/05/11 06:59:28;;;;;;;;;;;14.60;97.10;;;;;;5046460;28;19920;-70
2023/05/11 07:01:53;;;;;;;;;;;14.60;97.20;;;;;;5046328;28;19909;-69
2023/05/11 07:04:19;;;;;;;;;;;14.60;97.20;;;;;;5046101;28;20342;-69
2023/05/11 07:06:44;;;;;;;;;;;14.70;97.20;;;;;;5046322;28;20361;-69
2023/05/11 07:09:10;;;;;;;;;;;14.70;97.10;;;;;;5046102;28;19912;-70
2023/05/11 07:11:36;;;;;;;;;;;14.70;97.10;;;;;;5046482;28;19935;-70
2023/05/11 07:14:02;;;;;;;;;;;14.70;97.00;;;;;;5114454;27;19913;-70
2023/05/11 07:16:27;;;;;;;;;;;14.70;97.00;;;;;;5046342;28;19916;-70
2023/05/11 07:18:53;;;;;;;;;;;14.70;96.90;;;;;;5037366;28;19921;-70
2023/05/11 07:21:20;;;;;;;;;;;14.80;97.00;;;;;;5045700;28;19921;-70
2023/05/11 07:23:46;;;;;;;;;;;14.80;96.80;;;;;;5045609;28;20368;-70
2023/05/11 07:26:12;;;;;;;;;;;14.90;96.70;;;;;;5046041;28;19940;-70
2023/05/11 07:28:38;;;;;;;;;;;14.90;96.70;;;;;;5045895;28;19915;-70
2023/05/11 07:31:04;;;;;;;;;;;14.90;96.70;;;;;;5046286;28;19909;-69
2023/05/11 07:33:29;;;;;;;;;;;14.90;96.70;;;;;;5045278;28;19913;-69
2023/05/11 07:35:55;;;;;;;;;;;14.90;96.70;;;;;;5045918;28;20754;-69
2023/05/11 07:38:20;;;;;;;;;;;14.90;96.50;;;;;;5045792;28;20368;-70
2023/05/11 07:40:46;;;;;;;;;;;15.00;96.60;;;;;;5045712;28;20235;-70
2023/05/11 07:43:11;;;;;;;;;;;15.00;96.50;;;;;;5045679;28;20003;-70
2023/05/11 07:45:38;;;;;;;;;;;15.00;96.40;;;;;;5045834;28;19913;-69
2023/05/11 07:48:03;;;;;;;;;;;15.10;96.40;;;;;;5045702;28;20007;-70
2023/05/11 07:50:29;;;;;;;;;;;15.20;96.30;;;;;;5045519;28;20350;-70
2023/05/11 07:52:54;;;;;;;;;;;15.30;96.20;;;;;;5045367;28;19913;-70
2023/05/11 07:55:23;;;;;;;;;;;15.30;96.10;;;;;;5045395;28;19912;-70
2023/05/11 07:57:53;;;;;;;;;;;15.30;96.20;;;;;;5045797;28;19938;-70
2023/05/11 08:00:19;;;;;;;;;;;15.20;96.20;;;;;;5045505;28;19913;-69
2023/05/11 08:02:44;;;;;;;;;;;15.20;96.20;;;;;;5045531;28;19937;-70
2023/05/11 08:05:10;;;;;;;;;;;15.20;96.20;;;;;;5027225;28;19920;-69
2023/05/11 08:07:36;;;;;;;;;;;15.20;96.20;;;;;;5045396;28;19912;-70
2023/05/11 08:10:01;;;;;;;;;;;15.20;96.20;;;;;;5045295;28;19912;-70
2023/05/11 08:12:27;;;;;;;;;;;15.30;96.20;;;;;;5113960;28;19913;-69
2023/05/11 08:14:52;;;;;;;;;;;15.30;96.20;;;;;;5114012;28;19920;-70
2023/05/11 08:17:17;;;;;;;;;;;15.30;96.20;;;;;;5045317;28;20378;-69
2023/05/11 08:19:43;;;;;;;;;;;15.30;96.20;;;;;;5036560;28;19991;-70
2023/05/11 08:22:08;;;;;;;;;;;15.30;96.10;;;;;;5044921;28;19925;-69
2023/05/11 08:24:34;;;;;;;;;;;15.40;96.10;;;;;;5045070;28;19922;-69
2023/05/11 08:27:00;;;;;;;;;;;15.40;96.10;;;;;;5045301;28;19913;-69
2023/05/11 08:29:26;;;;;;;;;;;15.40;96.00;;;;;;5027504;28;19917;-69
2023/05/11 08:31:52;;;;;;;;;;;15.40;96.00;;;;;;5044932;28;19914;-69
2023/05/11 08:34:17;;;;;;;;;;;15.50;96.00;;;;;;5044691;28;19927;-70
2023/05/11 08:36:43;;;;;;;;;;;15.50;95.90;;;;;;5045042;28;19969;-70
2023/05/11 08:39:08;;;;;;;;;;;15.50;95.90;;;;;;5044882;28;19996;-70
2023/05/11 08:41:34;;;;;;;;;;;15.60;95.80;;;;;;5045011;27;19912;-70
2023/05/11 08:44:00;;;;;;;;;;;15.60;95.80;;;;;;5044636;28;20627;-70
2023/05/11 08:46:28;;;;;;;;;;;15.70;95.70;;;;;;5048155;28;20489;-69
2023/05/11 08:48:54;;;;;;;;;;;15.70;95.70;;;;;;5048081;28;20394;-70
2023/05/11 08:51:19;;;;;;;;;;;15.80;95.60;;;;;;5048459;28;19957;-70
2023/05/11 08:53:45;;;;;;;;;;;15.80;95.50;;;;;;5047949;28;20289;-70
2023/05/11 08:56:11;;;;;;;;;;;15.90;95.40;;;;;;5048302;28;19916;-70
2023/05/11 08:58:37;;;;;;;;;;;15.90;95.40;;;;;;5047663;28;20571;-69
2023/05/11 09:01:04;;;;;;;;;;;16.00;95.30;;;;;;5047916;28;19913;-69
2023/05/11 09:03:30;;;;;;;;;;;16.00;95.20;;;;;;5045462;28;19913;-71
2023/05/11 09:05:56;;;;;;;;;;;16.10;95.10;;;;;;5047442;28;19920;-69
2023/05/11 09:08:22;;;;;;;;;;;16.10;95.00;;;;;;5047254;28;19909;-70
2023/05/11 09:10:48;;;;;;;;;;;16.20;95.00;;;;;;5046962;28;19924;-70
2023/05/11 09:13:13;;;;;;;;;;;16.20;94.90;;;;;;5029119;28;19912;-70
2023/05/11 09:15:39;;;;;;;;;;;16.30;94.80;;;;;;5029598;28;20625;-70
2023/05/11 09:18:05;;;;;;;;;;;16.30;94.80;;;;;;5029482;28;20670;-70
2023/05/11 09:20:32;;;;;;;;;;;16.40;94.70;;;;;;5046711;27;19921;-71
2023/05/11 09:22:57;;;;;;;;;;;16.50;94.60;;;;;;5046928;28;19969;-70
2023/05/11 09:25:23;;;;;;;;;;;16.50;94.50;;;;;;5046952;28;19913;-70
2023/05/11 09:27:49;;;;;;;;;;;16.50;94.60;;;;;;5047122;28;19919;-70
2023/05/11 09:30:15;;;;;;;;;;;16.50;94.50;;;;;;5047129;28;19999;-71
2023/05/11 09:32:53;;;;;;;;;;;16.50;94.60;;;;;;5029160;28;19916;-71
2023/05/11 09:35:30;;;;;;;;;;;16.50;94.60;;;;;;5047093;28;19912;-71
2023/05/11 09:38:17;;;;;;;;;;;16.50;94.60;;;;;;5046850;28;19916;-71
2023/05/11 09:40:51;;;;;;;;;;;16.50;94.60;;;;;;5114006;27;19917;-70
2023/05/11 09:43:17;;;;;;;;;;;16.50;94.80;;;;;;5046682;28;19917;-70
2023/05/11 09:45:44;;;;;;;;;;;16.40;94.80;;;;;;5046892;28;19962;-70
2023/05/11 09:48:22;;;;;;;;;;;16.40;94.90;;;;;;5046934;28;20597;-70
2023/05/11 09:50:49;;;;;;;;;;;16.40;95.00;;;;;;5046755;28;19936;-70
2023/05/11 09:53:14;;;;;;;;;;;16.40;95.10;;;;;;5046602;28;20530;-70
2023/05/11 09:55:50;;;;;;;;;;;16.30;95.20;;;;;;5046386;28;19913;-70
2023/05/11 09:58:16;;;;;;;;;;;16.30;95.20;;;;;;5046562;28;19923;-70
2023/05/11 10:00:49;;;;;;;;;;;16.30;95.30;;;;;;5046619;28;20305;-70
2023/05/11 10:03:15;;;;;;;;;;;16.30;95.70;;;;;;5046444;28;19947;-70
2023/05/11 10:05:54;;;;;;;;;;;16.30;95.40;;;;;;5046499;28;20365;-71
2023/05/11 10:08:26;;;;;;;;;;;16.30;95.40;;;;;;5046384;28;19937;-71
2023/05/11 10:10:51;;;;;;;;;;;16.30;95.50;;;;;;5046357;28;19920;-70
2023/05/11 10:13:17;;;;;;;;;;;16.30;95.80;;;;;;5046255;28;19917;-70
2023/05/11 10:15:42;;;;;;;;;;;16.30;95.50;;;;;;5046371;28;19941;-70
2023/05/11 10:18:08;;;;;;;;;;;16.30;95.50;;;;;;5088049;27;19957;-70
2023/05/11 10:20:34;;;;;;;;;;;16.30;95.50;;;;;;5045375;28;20001;-70
2023/05/11 10:22:59;;;;;;;;;;;16.30;95.50;;;;;;5046147;28;20598;-70
2023/05/11 10:25:27;;;;;;;;;;;16.30;95.50;;;;;;5045850;28;19913;-70
2023/05/11 10:27:53;;;;;;;;;;;16.30;95.50;;;;;;5028207;28;20061;-71
2023/05/11 10:30:19;;;;;;;;;;;16.30;95.50;;;;;;5046082;28;20129;-70
2023/05/11 10:32:48;;;;;;;;;;;16.30;95.40;;;;;;5027963;28;19917;-70
2023/05/11 10:35:13;;;;;;;;;;;16.30;95.40;;;;;;5046004;28;19920;-70
2023/05/11 10:37:40;;;;;;;;;;;16.40;95.40;;;;;;5045921;28;19917;-70
2023/05/11 10:40:06;;;;;;;;;;;16.40;95.40;;;;;;5045818;28;19913;-70
2023/05/11 10:42:41;;;;;;;;;;;16.40;95.30;;;;;;5045421;28;20345;-70
2023/05/11 10:45:09;;;;;;;;;;;16.40;95.30;;;;;;5045501;28;19920;-70
2023/05/11 10:47:44;;;;;;;;;;;16.50;95.20;;;;;;5045537;28;19916;-70
2023/05/11 10:50:15;;;;;;;;;;;16.50;95.10;;;;;;5045653;28;19961;-71
2023/05/11 10:52:51;;;;;;;;;;;16.50;95.40;;;;;;5045649;28;20004;-71
2023/05/11 10:55:26;;;;;;;;;;;16.60;95.10;;;;;;5027691;28;20281;-70
2023/05/11 10:58:02;;;;;;;;;;;16.60;95.00;;;;;;5045625;28;19916;-71
2023/05/11 11:00:34;;;;;;;;;;;16.60;95.00;;;;;;5045504;28;19909;-70
2023/05/11 11:03:10;;;;;;;;;;;16.60;95.00;;;;;;5045555;28;19913;-71
2023/05/11 11:05:37;;;;;;;;;;;16.60;95.00;;;;;;5027583;28;19913;-70
2023/05/11 11:08:03;;;;;;;;;;;16.60;95.00;;;;;;5045002;28;20701;-70
2023/05/11 11:10:32;;;;;;;;;;;16.60;95.00;;;;;;5045424;28;19932;-70
2023/05/11 11:13:08;;;;;;;;;;;16.60;95.00;;;;;;5044950;28;19919;-70
2023/05/11 11:15:51;;;;;;;;;;;16.60;95.00;;;;;;5045068;28;19938;-70
2023/05/11 11:18:23;;;;;;;;;;;16.70;94.90;;;;;;5037107;28;19924;-70
2023/05/11 11:20:50;;;;;;;;;;;16.70;94.90;;;;;;5044872;28;19913;-70
2023/05/11 11:23:34;;;;;;;;;;;16.70;95.00;;;;;;5045567;28;19917;-70
2023/05/11 11:25:59;;;;;;;;;;;16.70;94.90;;;;;;5045489;28;19920;-70
2023/05/11 11:28:25;;;;;;;;;;;16.70;95.00;;;;;;5045412;28;19913;-70
2023/05/11 11:31:30;;;;;;;;;;;16.70;94.90;;;;;;5027368;28;19929;-70
2023/05/11 11:33:57;;;;;;;;;;;16.80;94.90;;;;;;5048053;28;19935;-70
2023/05/11 11:36:41;;;;;;;;;;;16.90;94.80;;;;;;5065971;28;20467;-70
2023/05/11 11:39:07;;;;;;;;;;;16.90;94.60;;;;;;5061091;28;19922;-70
2023/05/11 11:41:32;;;;;;;;;;;17.00;94.50;;;;;;5027325;28;20015;-71
2023/05/11 11:43:58;;;;;;;;;;;17.00;94.40;;;;;;5044580;28;19919;-71
2023/05/11 11:46:25;;;;;;;;;;;17.10;94.30;;;;;;5044901;28;19953;-70
2023/05/11 11:48:50;;;;;;;;;;;17.20;94.30;;;;;;5044544;28;20446;-70
2023/05/11 11:51:17;;;;;;;;;;;17.30;94.20;;;;;;5044979;28;19995;-71
2023/05/11 11:53:45;;;;;;;;;;;17.30;94.10;;;;;;5044546;28;19995;-71
2023/05/11 11:56:14;;;;;;;;;;;17.40;94.00;;;;;;5045143;28;19920;-70
2023/05/11 11:58:39;;;;;;;;;;;17.40;94.00;;;;;;5044610;28;19923;-70
2023/05/11 12:01:05;;;;;;;;;;;17.50;93.90;;;;;;5044961;28;19912;-71
2023/05/11 12:03:34;;;;;;;;;;;17.50;93.80;;;;;;5044352;28;19916;-71
2023/05/11 12:06:00;;;;;;;;;;;17.60;93.80;;;;;;5044553;28;19923;-71
2023/05/11 12:08:28;;;;;;;;;;;17.60;93.70;;;;;;5044382;28;19913;-70
2023/05/11 12:10:53;;;;;;;;;;;17.70;93.80;;;;;;5044533;28;19913;-71
2023/05/11 12:13:19;;;;;;;;;;;17.70;93.70;;;;;;5044321;28;19930;-71
2023/05/11 12:15:45;;;;;;;;;;;17.70;93.60;;;;;;5044226;28;20283;-71
2023/05/11 12:18:22;;;;;;;;;;;17.80;93.60;;;;;;5036774;28;19917;-72
2023/05/11 12:20:48;;;;;;;;;;;17.80;93.50;;;;;;5020618;28;19944;-71
2023/05/11 12:23:14;;;;;;;;;;;17.90;93.50;;;;;;5047357;28;20028;-70
2023/05/11 12:25:39;;;;;;;;;;;18.00;93.50;;;;;;5046926;28;19913;-70
2023/05/11 12:28:05;;;;;;;;;;;18.00;93.40;;;;;;5047941;28;19913;-71
2023/05/11 12:30:31;;;;;;;;;;;18.10;93.30;;;;;;5048686;28;19920;-70
2023/05/11 12:32:58;;;;;;;;;;;18.10;93.30;;;;;;5048502;28;20451;-71
2023/05/11 12:35:25;;;;;;;;;;;18.20;93.30;;;;;;5064116;27;20359;-70
2023/05/11 12:37:50;;;;;;;;;;;18.20;93.20;;;;;;5048437;28;19917;-71
2023/05/11 12:40:16;;;;;;;;;;;18.30;93.20;;;;;;5048572;28;19913;-71
2023/05/11 12:42:48;;;;;;;;;;;18.30;93.20;;;;;;5048366;28;19916;-71
2023/05/11 12:45:14;;;;;;;;;;;18.30;93.30;;;;;;5048610;28;20323;-71
2023/05/11 12:47:39;;;;;;;;;;;18.30;93.20;;;;;;5048654;28;19917;-71
2023/05/11 12:50:06;;;;;;;;;;;18.40;93.30;;;;;;5048296;28;19969;-71
2023/05/11 12:52:31;;;;;;;;;;;18.40;93.20;;;;;;5047215;28;19920;-72
2023/05/11 12:54:59;;;;;;;;;;;18.50;93.20;;;;;;5048221;28;19909;-71
2023/05/11 12:57:25;;;;;;;;;;;18.50;93.10;;;;;;5048412;28;19967;-72
2023/05/11 13:00:06;;;;;;;;;;;18.50;93.10;;;;;;5048335;28;19920;-70
2023/05/11 13:02:32;;;;;;;;;;;18.60;93.10;;;;;;5048174;28;19920;-71
2023/05/11 13:04:58;;;;;;;;;;;18.60;93.10;;;;;;5037671;27;19917;-70
2023/05/11 13:07:25;;;;;;;;;;;18.60;93.00;;;;;;5042732;28;19916;-71
2023/05/11 13:09:57;;;;;;;;;;;18.70;93.10;;;;;;5048047;28;19916;-71
2023/05/11 13:12:24;;;;;;;;;;;18.70;92.90;;;;;;5048130;28;19916;-71
2023/05/11 13:15:03;;;;;;;;;;;18.70;93.20;;;;;;5047718;28;19913;-71
2023/05/11 13:17:29;;;;;;;;;;;18.70;93.00;;;;;;5046502;28;20251;-71
2023/05/11 13:19:55;;;;;;;;;;;18.70;93.00;;;;;;5022835;28;19956;-71
2023/05/11 13:22:20;;;;;;;;;;;18.70;93.00;;;;;;5047396;28;19921;-71
2023/05/11 13:24:46;;;;;;;;;;;18.70;93.00;;;;;;5030046;28;19957;-70
2023/05/11 13:27:11;;;;;;;;;;;18.70;93.00;;;;;;5047954;28;19913;-70
2023/05/11 13:29:37;;;;;;;;;;;18.70;93.30;;;;;;5048149;28;20328;-71
2023/05/11 13:32:02;;;;;;;;;;;18.70;92.90;;;;;;5047037;28;20061;-71
2023/05/11 13:34:28;;;;;;;;;;;18.70;93.20;;;;;;5029844;28;20369;-71
2023/05/11 13:36:53;;;;;;;;;;;18.70;93.20;;;;;;5047914;28;19913;-71
2023/05/11 13:39:19;;;;;;;;;;;18.60;93.10;;;;;;5047489;28;19913;-71
2023/05/11 13:41:45;;;;;;;;;;;18.60;93.20;;;;;;5047595;28;19932;-70
2023/05/11 13:44:10;;;;;;;;;;;18.60;93.30;;;;;;5029566;28;20389;-70
2023/05/11 13:46:36;;;;;;;;;;;18.50;93.40;;;;;;5029854;28;19913;-71
2023/05/11 13:49:03;;;;;;;;;;;18.50;93.70;;;;;;5046449;28;20004;-70
2023/05/11 13:51:29;;;;;;;;;;;18.40;94.10;;;;;;5047479;28;19931;-70
2023/05/11 13:53:54;;;;;;;;;;;18.40;94.00;;;;;;5046939;28;20433;-71
2023/05/11 13:56:20;;;;;;;;;;;18.30;94.00;;;;;;5047339;28;19961;-70
2023/05/11 13:58:46;;;;;;;;;;;18.30;94.00;;;;;;5047271;28;19912;-71
2023/05/11 14:01:11;;;;;;;;;;;18.20;94.00;;;;;;5029729;28;20413;-70
2023/05/11 14:03:38;;;;;;;;;;;18.20;94.10;;;;;;5047022;28;19909;-70
2023/05/11 14:06:03;;;;;;;;;;;18.10;94.20;;;;;;5047362;28;19909;-70
2023/05/11 14:08:29;;;;;;;;;;;18.10;94.30;;;;;;5047238;28;19913;-71
2023/05/11 14:10:54;;;;;;;;;;;18.10;94.30;;;;;;5047035;28;20317;-71
2023/05/11 14:13:21;;;;;;;;;;;18.00;94.40;;;;;;5046840;28;19919;-70
2023/05/11 14:15:46;;;;;;;;;;;18.00;94.50;;;;;;5115755;27;20462;-71